首页
METAR-TAF:

METAR-TAF

机场 :

布里斯托機場

布里斯托尔, 英格兰

纬度: 51-23N, 经度: 002-43W, 海拔: 189米

当前天气观测

该预报发布于25分钟前的00:50 UTC
风速13节,风向东转东南
温度 7°C
湿度 76%
气压 1009 hPa
能见度10公里或以上
小雨

METAR: EGGD 080050Z AUTO 12013KT 9999 -RA NCD 07/03 Q1009

时间: 02:15 (01:15 UTC)

预报

该预报发布于2小时和14分钟前的23:01 UTC
预报有效从08日的 00点(UTC)到 08日的 24点(UTC)
风速12节,风向东转东南
能见度10公里或以上
散云层高于3500英尺
成为
从 08日的 00点(UTC)到 08日的 03点(UTC)
能見度: 6000
散云层高于400英尺
多云层高于1000英尺
短暂存在
从 08日的 03点(UTC)到 08日的 07点(UTC)
风速18节,风向东南,有时为28节阵风
能見度: 2500
多云层高于200英尺
大雨
几率 30% :
短暂存在
从 08日的 06点(UTC)到 08日的 09点(UTC)
能見度: 1200
阴天层高于100英尺
成为
从 08日的 07点(UTC)到 08日的 10点(UTC)
风速20节,风向南转西南,有时为30节阵风
能见度10公里或以上
短暂存在
从 08日的 07点(UTC)到 08日的 11点(UTC)
能見度: 3000
多云层高于200英尺
雨, 毛毛雨
短暂存在
从 08日的 12点(UTC)到 08日的 21点(UTC)
散云层高于800英尺
多云层高于1500英尺
短暂存在
从 08日的 21点(UTC)到 08日的 24点(UTC)
能見度: 6000
多云层高于400英尺

TAF: EGGD 072301Z 0800/0824 12012KT 9999 SCT035 BECMG 0800/0803 6000 RA SCT004 BKN010 TEMPO 0803/0807 14018G28KT 2500 +RA BKN002 PROB30 TEMPO 0806/0809 1200 OVC001 BECMG 0807/0810 21020G30KT 9999 NSW TEMPO 0807/0811 3000 RADZ BKN002 TEMPO 0812/0821 SCT008 BKN015 TEMPO 0821/0824 6000 RA BKN004

超过4000个机场的气象观测和天气预报(METAR&TAF报告)。

可查询的气象台以黄色和红色小点在地图上表示。

将鼠标移到小点上方,可查看气象台名称。

然后点击查看天气观测和预报。

如需切换地图:点击带黑十字的绿色按钮放大地图;点击带横线的绿色按钮缩小地图;或者点击绿色箭头查看邻近地区的地图。


METAR-TAF: